Time;durP1;ratioP1;P1;durP2;ratioP2;P2;SDS_P1;SDS_P2;PMS_P1;PMS_P2;Temp;Humidity;BMP_temperature;BMP_pressure;BME280_temperature;BME280_humidity;BME280_pressure;Samples;Min_cycle;Max_cycle;Signal;HPM_P1;HPM_P2
2023/03/01 16:13:47;;;;;;;1.98;1.10;;;;;;;20.34;33.37;101981.16;5117181;27;20448;-41
2023/03/01 16:16:16;;;;;;;1.95;1.13;;;;;;;21.35;31.90;101978.44;5098876;28;20035;-47
2023/03/01 16:18:45;;;;;;;2.05;1.40;;;;;;;22.09;30.10;101976.91;5109887;28;20112;-42
2023/03/01 16:21:20;;;;;;;2.33;1.10;;;;;;;22.66;29.28;101972.88;5103913;28;20065;-41
2023/03/01 16:23:48;;;;;;;2.35;1.00;;;;;;;23.00;28.72;101974.88;5108297;28;20474;-44
2023/03/01 16:26:15;;;;;;;2.22;1.50;;;;;;;23.23;28.75;101971.28;5109389;28;20486;-40
2023/03/01 16:28:43;;;;;;;1.83;0.85;;;;;;;23.46;28.12;101977.22;5109711;28;20030;-44
2023/03/01 16:31:11;;;;;;;2.13;1.10;;;;;;;23.50;28.15;101984.34;5108696;28;20020;-46
2023/03/01 16:33:49;;;;;;;3.00;1.10;;;;;;;23.60;27.96;101985.53;5109687;28;20047;-48
2023/03/01 16:36:18;;;;;;;1.55;0.80;;;;;;;23.70;27.74;101982.34;5108407;28;20550;-43
2023/03/01 16:38:45;;;;;;;2.00;0.93;;;;;;;23.78;27.44;101980.84;5109189;28;20059;-40
2023/03/01 16:41:15;;;;;;;2.60;1.30;;;;;;;23.70;27.41;101987.56;5108542;28;20523;-43
2023/03/01 16:43:43;;;;;;;2.70;1.15;;;;;;;23.74;27.32;101975.47;5108196;28;20032;-42
2023/03/01 16:46:21;;;;;;;2.10;0.98;;;;;;;23.79;27.09;101966.00;5109191;28;20024;-43
2023/03/01 16:48:50;;;;;;;2.67;0.95;;;;;;;23.68;27.35;101970.91;5109092;28;20080;-41
2023/03/01 16:51:17;;;;;;;4.28;1.50;;;;;;;23.70;27.49;101969.22;5107944;28;20024;-41
2023/03/01 16:53:45;;;;;;;5.15;1.13;;;;;;;23.77;27.34;101973.81;5109261;28;20035;-43
2023/03/01 16:56:13;;;;;;;1.45;0.90;;;;;;;23.78;27.23;101973.00;5109250;28;20023;-43
2023/03/01 16:58:41;;;;;;;3.75;1.10;;;;;;;23.78;27.51;101970.38;5108898;28;20410;-44
2023/03/01 17:01:15;;;;;;;1.65;1.00;;;;;;;23.80;27.41;101970.41;5099609;28;20477;-40
2023/03/01 17:03:43;;;;;;;1.80;1.00;;;;;;;23.77;27.35;101981.69;5107412;28;20043;-42
2023/03/01 17:06:15;;;;;;;3.38;1.33;;;;;;;23.72;27.58;101982.41;5109144;28;20480;-41
2023/03/01 17:08:42;;;;;;;3.90;1.38;;;;;;;23.74;27.56;101980.72;5108757;28;20081;-41
2023/03/01 17:11:12;;;;;;;4.55;1.40;;;;;;;23.64;27.72;101974.31;5107542;28;20462;-43
2023/03/01 17:13:40;;;;;;;1.67;0.95;;;;;;;23.70;27.47;101977.09;5106822;28;20051;-41
2023/03/01 17:16:10;;;;;;;1.85;1.02;;;;;;;23.79;27.39;101980.00;5108695;28;20024;-46
2023/03/01 17:18:38;;;;;;;2.40;1.10;;;;;;;23.81;27.46;101980.94;5108383;28;20404;-47
2023/03/01 17:21:07;;;;;;;7.10;1.10;;;;;;;23.92;27.13;101975.13;5105992;28;20438;-42
2023/03/01 17:23:37;;;;;;;3.13;1.40;;;;;;;23.77;27.25;101981.69;5099113;28;20032;-48
2023/03/01 17:26:06;;;;;;;2.25;1.40;;;;;;;23.67;27.43;101982.22;5095201;28;20063;-44
2023/03/01 17:28:37;;;;;;;4.25;1.08;;;;;;;23.59;27.40;101983.75;5094762;28;20032;-43
2023/03/01 17:31:07;;;;;;;3.10;1.40;;;;;;;23.80;27.46;101979.16;5093683;28;20423;-42
2023/03/01 17:33:35;;;;;;;12.73;7.95;;;;;;;23.86;27.01;101965.34;5093705;28;20374;-41
2023/03/01 17:36:03;;;;;;;20.65;12.38;;;;;;;23.74;27.43;101978.97;5094977;28;20102;-42
2023/03/01 17:38:31;;;;;;;21.50;12.98;;;;;;;23.56;27.90;101970.56;5093518;28;20031;-43
2023/03/01 17:41:01;;;;;;;37.60;23.40;;;;;;;23.57;27.89;101977.56;5090013;28;20020;-41
2023/03/01 17:43:29;;;;;;;54.67;32.22;;;;;;;23.60;28.10;101985.53;5084786;28;20131;-42
2023/03/01 17:45:58;;;;;;;59.20;38.33;;;;;;;23.68;27.89;101984.00;5094701;28;20034;-40
2023/03/01 17:48:27;;;;;;;74.13;48.60;;;;;;;23.69;28.33;101987.53;5093271;28;20081;-41
2023/03/01 17:50:54;;;;;;;95.80;61.13;;;;;;;23.58;28.46;101990.69;5093289;28;20025;-48
2023/03/01 17:53:22;;;;;;;95.97;65.38;;;;;;;23.61;28.20;101987.31;5093883;28;20430;-44
2023/03/01 17:55:58;;;;;;;107.50;70.63;;;;;;;23.58;29.04;101995.06;5094486;28;20431;-40
2023/03/01 17:58:26;;;;;;;114.88;76.85;;;;;;;23.55;28.67;101995.88;5093444;28;20477;-41
2023/03/01 18:00:54;;;;;;;121.80;81.43;;;;;;;23.50;28.97;101995.69;5092946;28;20028;-41
2023/03/01 18:03:22;;;;;;;131.35;84.35;;;;;;;23.51;29.22;102002.72;5093741;28;20035;-40
2023/03/01 18:05:50;;;;;;;129.57;88.13;;;;;;;23.47;28.96;101995.63;5094132;28;20028;-43
2023/03/01 18:08:18;;;;;;;136.05;93.53;;;;;;;23.46;28.85;102006.03;5092556;28;20485;-43
2023/03/01 18:10:47;;;;;;;151.60;101.65;;;;;;;23.45;29.24;102006.88;5091071;28;20086;-42
2023/03/01 18:13:15;;;;;;;146.90;101.63;;;;;;;23.46;29.54;102009.56;5092182;28;20052;-45
2023/03/01 18:15:42;;;;;;;157.23;106.50;;;;;;;23.45;29.17;102002.53;5093975;28;20508;-44
2023/03/01 18:18:11;;;;;;;164.25;111.03;;;;;;;23.45;29.18;102001.63;5094183;28;20604;-46
2023/03/01 18:20:39;;;;;;;162.18;110.85;;;;;;;23.46;29.39;101998.19;5092158;28;20032;-45
2023/03/01 18:23:06;;;;;;;177.52;119.22;;;;;;;23.41;29.36;102000.66;5093597;28;20024;-43
2023/03/01 18:25:35;;;;;;;176.55;116.80;;;;;;;23.44;29.71;102007.72;5091586;28;20377;-43
2023/03/01 18:28:03;;;;;;;170.43;116.85;;;;;;;23.44;29.25;102000.75;5094086;28;20031;-43
2023/03/01 18:30:32;;;;;;;192.27;128.65;;;;;;;23.38;29.71;102000.56;5092121;28;20039;-43
2023/03/01 18:32:59;;;;;;;186.20;129.23;;;;;;;23.35;30.12;102005.69;5093343;28;20020;-41
2023/03/01 18:35:30;;;;;;;199.40;133.88;;;;;;;23.34;29.58;102001.28;5088600;28;20428;-45
2023/03/01 18:37:57;;;;;;;202.90;137.85;;;;;;;23.35;29.69;102008.31;5093912;28;20028;-44
2023/03/01 18:40:26;;;;;;;194.35;135.52;;;;;;;23.37;29.84;102017.09;5087166;28;20385;-41
2023/03/01 18:42:54;;;;;;;209.48;141.15;;;;;;;23.37;30.12;102011.88;5093075;28;20536;-42
2023/03/01 18:45:22;;;;;;;203.18;142.20;;;;;;;23.41;30.05;102019.00;5089513;28;20125;-44
2023/03/01 18:47:51;;;;;;;208.50;142.65;;;;;;;23.42;30.09;102012.91;5089148;28;20038;-44
2023/03/01 18:50:18;;;;;;;205.68;146.90;;;;;;;23.41;30.02;102021.59;5086947;28;20381;-46
2023/03/01 18:52:47;;;;;;;219.15;151.35;;;;;;;23.51;30.34;102023.66;5088239;28;20452;-43
2023/03/01 18:55:15;;;;;;;233.52;157.10;;;;;;;23.50;30.28;102028.88;5084885;28;20063;-43
2023/03/01 18:57:43;;;;;;;208.95;150.63;;;;;;;23.66;30.13;102017.16;5093497;28;20012;-41
2023/03/01 19:00:11;;;;;;;218.20;151.93;;;;;;;23.65;29.75;102031.97;5092563;28;20028;-47
2023/03/01 19:02:40;;;;;;;219.73;151.50;;;;;;;23.62;30.20;102034.50;5092042;28;20031;-42
2023/03/01 19:05:08;;;;;;;231.27;161.60;;;;;;;23.61;30.39;102031.84;5088590;28;20024;-44
2023/03/01 19:07:35;;;;;;;235.30;156.65;;;;;;;23.61;30.02;102031.84;5088938;28;20103;-41
2023/03/01 19:10:03;;;;;;;224.55;154.68;;;;;;;23.75;29.94;102040.09;5092322;28;20085;-44
2023/03/01 19:12:31;;;;;;;235.15;156.82;;;;;;;23.74;30.05;102039.22;5092113;28;20040;-44
2023/03/01 19:14:59;;;;;;;244.57;164.40;;;;;;;23.73;30.52;102044.44;5088917;28;20086;-44
2023/03/01 19:17:29;;;;;;;244.23;163.75;;;;;;;23.66;30.37;102045.97;5092916;28;20024;-44
2023/03/01 19:19:57;;;;;;;247.10;169.40;;;;;;;23.68;30.21;102028.53;5089638;28;20063;-44
2023/03/01 19:22:27;;;;;;;241.35;168.40;;;;;;;23.65;30.96;102044.19;5091439;28;20032;-44
2023/03/01 19:24:55;;;;;;;236.55;167.60;;;;;;;23.71;30.49;102035.63;5088770;28;20039;-43
2023/03/01 19:27:23;;;;;;;239.35;167.30;;;;;;;23.65;30.76;102029.34;5084217;28;20031;-44
2023/03/01 19:29:51;;;;;;;241.65;169.35;;;;;;;23.80;30.60;102042.06;5092643;28;20035;-42
2023/03/01 19:32:18;;;;;;;246.93;171.93;;;;;;;23.77;30.77;102041.94;5086894;28;20043;-41
2023/03/01 19:34:47;;;;;;;226.93;162.73;;;;;;;23.73;30.52;102039.19;5092663;28;20469;-44
2023/03/01 19:37:14;;;;;;;259.23;178.43;;;;;;;23.69;30.85;102034.69;5084175;28;20036;-44
2023/03/01 19:39:42;;;;;;;261.92;182.00;;;;;;;23.71;31.13;102035.63;5088437;28;20549;-41
2023/03/01 19:42:11;;;;;;;252.68;180.32;;;;;;;23.70;30.67;102034.72;5090761;28;20032;-41
2023/03/01 19:44:40;;;;;;;251.02;174.45;;;;;;;23.70;30.78;102024.25;5092325;28;20031;-44
2023/03/01 19:47:08;;;;;;;258.27;180.60;;;;;;;23.71;30.78;102028.66;5088209;28;20381;-47
2023/03/01 19:49:36;;;;;;;262.70;179.43;;;;;;;23.66;31.09;102018.03;5088546;28;20424;-44
2023/03/01 19:52:05;;;;;;;260.13;182.30;;;;;;;23.70;30.69;102024.25;5091456;28;20437;-46
2023/03/01 19:54:33;;;;;;;259.48;181.95;;;;;;;23.64;31.14;102027.56;5093035;28;20251;-43
2023/03/01 19:57:02;;;;;;;269.40;189.30;;;;;;;23.63;31.15;102030.16;5093127;28;20031;-44
2023/03/01 19:59:31;;;;;;;275.15;193.25;;;;;;;23.55;31.19;102027.28;5093103;28;20028;-43
2023/03/01 20:01:59;;;;;;;277.10;195.63;;;;;;;23.52;31.23;102033.31;5091994;28;20027;-44
2023/03/01 20:04:28;;;;;;;290.20;199.43;;;;;;;23.52;31.11;102041.16;5091718;28;20036;-44
2023/03/01 20:06:56;;;;;;;267.67;191.05;;;;;;;23.48;31.51;102031.44;5092662;28;20030;-44
2023/03/01 20:09:25;;;;;;;264.75;182.63;;;;;;;23.60;31.15;102025.69;5093096;28;20160;-44
2023/03/01 20:11:53;;;;;;;260.10;186.38;;;;;;;23.67;30.95;102027.66;5092710;28;20045;-43
2023/03/01 20:14:22;;;;;;;276.33;190.20;;;;;;;23.62;31.50;102023.13;5093093;28;20028;-44
2023/03/01 20:16:51;;;;;;;276.27;188.93;;;;;;;23.64;31.24;102022.34;5091457;28;20031;-44
2023/03/01 20:19:20;;;;;;;270.77;194.80;;;;;;;23.62;31.39;102015.28;5092920;28;20028;-46
2023/03/01 20:21:48;;;;;;;273.40;195.77;;;;;;;23.61;31.30;102019.63;5091750;28;20841;-42
2023/03/01 20:24:17;;;;;;;272.92;195.85;;;;;;;23.61;31.24;102014.38;5091415;28;20028;-44
2023/03/01 20:26:46;;;;;;;270.55;193.88;;;;;;;23.59;31.30;102010.81;5092908;28;20028;-40
2023/03/01 20:29:14;;;;;;;283.33;198.75;;;;;;;23.66;31.38;102001.44;5092781;28;20060;-46
2023/03/01 20:31:43;;;;;;;290.00;202.93;;;;;;;23.60;31.15;102002.13;5092720;28;20111;-47
2023/03/01 20:34:12;;;;;;;276.80;194.82;;;;;;;23.50;31.44;101997.44;5092886;28;20020;-43
2023/03/01 20:36:40;;;;;;;279.48;202.85;;;;;;;23.50;31.31;102000.94;5092479;28;20024;-43
2023/03/01 20:39:10;;;;;;;275.70;199.38;;;;;;;23.45;31.40;102001.63;5092768;28;20426;-44
2023/03/01 20:41:39;;;;;;;282.30;202.25;;;;;;;23.44;31.77;101992.00;5092815;28;20504;-44
2023/03/01 20:44:08;;;;;;;288.73;199.77;;;;;;;23.43;31.76;101998.97;5087727;28;20020;-43
2023/03/01 20:46:36;;;;;;;276.40;190.43;;;;;;;23.59;31.27;102002.09;5084660;28;20036;-46
2023/03/01 20:49:06;;;;;;;265.92;192.85;;;;;;;23.80;31.05;102001.84;5091460;28;20369;-46
2023/03/01 20:51:34;;;;;;;272.17;196.13;;;;;;;23.80;31.17;102010.59;5090929;28;20475;-44
2023/03/01 20:54:03;;;;;;;285.77;196.75;;;;;;;23.71;31.33;102012.94;5092694;28;20385;-46
2023/03/01 20:56:31;;;;;;;284.77;203.57;;;;;;;23.59;31.55;102008.19;5092688;28;20039;-46
2023/03/01 20:58:58;;;;;;;282.92;201.23;;;;;;;23.54;31.57;102003.66;5093926;28;20024;-42
2023/03/01 21:01:27;;;;;;;289.40;207.40;;;;;;;23.74;31.20;102013.03;5096121;28;20107;-48
2023/03/01 21:03:56;;;;;;;278.75;201.55;;;;;;;23.65;31.16;102004.91;5096055;28;20109;-45
2023/03/01 21:06:24;;;;;;;286.80;203.88;;;;;;;23.89;31.23;102014.34;5096424;28;20023;-45
2023/03/01 21:08:54;;;;;;;288.90;207.98;;;;;;;23.77;31.51;102015.75;5096247;28;20028;-41
2023/03/01 21:11:26;;;;;;;286.95;209.93;;;;;;;23.67;31.33;102019.81;5096052;28;20027;-41
2023/03/01 21:13:55;;;;;;;297.25;212.07;;;;;;;23.64;31.60;102014.47;5096244;28;20040;-41
2023/03/01 21:16:24;;;;;;;302.48;209.05;;;;;;;23.57;31.35;102019.47;5096364;28;20077;-47
2023/03/01 21:18:53;;;;;;;294.25;212.23;;;;;;;23.51;31.84;102014.94;5095638;28;20445;-45
2023/03/01 21:21:22;;;;;;;303.50;214.25;;;;;;;23.52;31.43;102021.97;5096074;28;20052;-48
2023/03/01 21:23:51;;;;;;;289.58;210.40;;;;;;;23.51;31.50;102023.66;5095852;28;20085;-41
2023/03/01 21:26:23;;;;;;;294.30;209.85;;;;;;;23.48;31.49;102025.31;5095904;28;20020;-47
2023/03/01 21:28:56;;;;;;;306.50;221.63;;;;;;;23.49;31.70;102025.38;5095774;28;20093;-45
2023/03/01 21:31:27;;;;;;;296.77;213.23;;;;;;;23.51;31.96;102023.66;5095847;28;20427;-44
2023/03/01 21:33:57;;;;;;;305.90;218.02;;;;;;;23.46;31.94;102025.28;5095798;28;20056;-49
2023/03/01 21:36:27;;;;;;;299.88;213.88;;;;;;;23.46;31.96;102029.59;5095784;28;20028;-46
2023/03/01 21:38:56;;;;;;;295.67;216.57;;;;;;;23.62;31.60;102031.00;5095395;28;20024;-47
2023/03/01 21:41:26;;;;;;;298.25;214.40;;;;;;;23.57;31.83;102038.72;5082574;28;20386;-50
2023/03/01 21:43:56;;;;;;;313.65;217.15;;;;;;;23.52;31.79;102035.06;5089135;28;20028;-47
2023/03/01 21:46:25;;;;;;;304.80;214.68;;;;;;;23.49;32.03;102040.19;5094856;28;20028;-49
2023/03/01 21:48:54;;;;;;;299.02;214.25;;;;;;;23.66;31.54;102046.84;5094655;28;20024;-47
2023/03/01 21:51:22;;;;;;;294.77;212.48;;;;;;;23.69;31.32;102047.78;5093414;28;20530;-43
2023/03/01 21:53:51;;;;;;;305.30;218.95;;;;;;;23.64;31.40;102039.78;5088809;28;20036;-46
2023/03/01 21:56:22;;;;;;;305.98;219.18;;;;;;;23.55;31.95;102037.78;5094657;28;20530;-42
2023/03/01 21:58:50;;;;;;;307.63;219.48;;;;;;;23.47;31.94;102037.53;5094890;28;20035;-41
2023/03/01 22:01:23;;;;;;;303.38;218.95;;;;;;;23.62;31.72;102037.09;5095476;28;20058;-48
2023/03/01 22:03:51;;;;;;;323.65;222.30;;;;;;;23.54;31.55;102042.94;5094869;28;20036;-43
2023/03/01 22:06:24;;;;;;;309.08;218.52;;;;;;;23.46;31.76;102041.00;5095215;28;20535;-44
2023/03/01 22:08:55;;;;;;;309.10;220.50;;;;;;;23.44;31.78;102041.75;5094953;28;20071;-42
2023/03/01 22:11:25;;;;;;;313.73;223.57;;;;;;;23.41;32.16;102033.81;5094634;28;20052;-47
2023/03/01 22:13:55;;;;;;;318.23;225.85;;;;;;;23.34;32.39;102041.47;5094969;28;20182;-43
2023/03/01 22:16:27;;;;;;;317.45;232.57;;;;;;;23.30;32.58;102036.09;5095038;28;20028;-49
2023/03/01 22:18:56;;;;;;;315.67;227.10;;;;;;;23.34;32.27;102032.72;5094878;28;20059;-40
2023/03/01 22:21:25;;;;;;;316.92;228.63;;;;;;;23.35;31.98;102034.50;5094750;28;20465;-43
2023/03/01 22:23:55;;;;;;;327.45;235.35;;;;;;;23.34;32.03;102030.09;5094729;28;20032;-41
2023/03/01 22:26:30;;;;;;;325.30;238.95;;;;;;;23.30;32.45;102036.09;5094857;28;20513;-43
2023/03/01 22:28:59;;;;;;;;;;;;;;;23.35;32.39;102031.88;5094830;28;20028;-45
2023/03/01 22:31:27;;;;;;;313.80;229.77;;;;;;;23.45;31.88;102030.44;5094765;28;19912;-47
2023/03/01 22:33:56;;;;;;;318.10;229.40;;;;;;;23.44;31.77;102032.19;5094973;28;20031;-44
2023/03/01 22:36:25;;;;;;;324.05;233.60;;;;;;;23.40;31.98;102034.66;5093241;28;20432;-49
2023/03/01 22:38:58;;;;;;;329.88;233.45;;;;;;;23.38;32.49;102047.69;5094644;28;20089;-43
2023/03/01 22:41:29;;;;;;;326.05;232.57;;;;;;;23.34;31.82;102030.09;5094667;28;20081;-49
2023/03/01 22:43:56;;;;;;;328.35;238.27;;;;;;;23.31;32.47;102036.13;5094548;28;20020;-43
2023/03/01 22:46:26;;;;;;;321.80;235.77;;;;;;;23.28;32.12;102038.63;5094563;28;20488;-41
2023/03/01 22:48:55;;;;;;;333.50;234.68;;;;;;;23.24;31.99;102038.50;5094168;28;20036;-41
2023/03/01 22:51:27;;;;;;;330.55;237.00;;;;;;;23.19;32.64;102036.56;5092909;28;20032;-41
2023/03/01 22:53:55;;;;;;;340.05;240.38;;;;;;;23.25;32.42;102041.16;5094206;28;20052;-44
2023/03/01 22:56:27;;;;;;;326.30;238.02;;;;;;;23.30;32.33;102039.59;5092931;28;20060;-43
2023/03/01 22:58:58;;;;;;;322.10;236.23;;;;;;;23.31;32.01;102045.72;5094099;28;20073;-47
2023/03/01 23:01:27;;;;;;;340.30;242.50;;;;;;;23.26;32.63;102034.19;5094136;28;20024;-43
2023/03/01 23:03:56;;;;;;;346.73;242.40;;;;;;;23.27;32.14;102036.84;5092989;28;20435;-43
2023/03/01 23:06:25;;;;;;;342.67;243.60;;;;;;;23.29;32.09;102023.84;5093973;28;20031;-42
2023/03/01 23:08:55;;;;;;;328.35;239.60;;;;;;;23.34;31.96;102025.75;5092688;28;20101;-42
2023/03/01 23:11:25;;;;;;;331.85;237.70;;;;;;;23.29;32.00;102022.09;5092525;28;20415;-43
2023/03/01 23:13:54;;;;;;;339.20;240.15;;;;;;;23.12;32.35;101994.44;5093673;28;20505;-42
2023/03/01 23:16:24;;;;;;;328.08;236.80;;;;;;;23.32;32.41;102022.19;5093859;28;20020;-43
2023/03/01 23:18:57;;;;;;;319.40;237.30;;;;;;;23.34;31.87;102017.00;5093732;28;20498;-43
2023/03/01 23:21:25;;;;;;;330.83;234.77;;;;;;;23.30;31.62;102023.00;5093612;28;20489;-44
2023/03/01 23:23:56;;;;;;;331.40;235.43;;;;;;;23.30;31.99;102023.00;5093819;28;20079;-42
2023/03/01 23:26:27;;;;;;;336.90;237.32;;;;;;;23.30;32.13;102028.25;5092408;28;20389;-44
2023/03/01 23:28:56;;;;;;;335.48;239.90;;;;;;;23.30;32.06;102018.63;5093815;28;20031;-41
2023/03/01 23:31:28;;;;;;;333.67;243.90;;;;;;;23.30;32.14;102026.50;5093726;28;20024;-48
2023/03/01 23:33:57;;;;;;;342.17;243.93;;;;;;;23.25;32.35;102022.81;5092357;28;20070;-46
2023/03/01 23:36:29;;;;;;;341.00;240.70;;;;;;;23.23;31.74;102023.63;5093413;28;20032;-44
2023/03/01 23:39:00;;;;;;;330.85;238.02;;;;;;;23.21;31.96;102024.47;5092095;28;20420;-48
2023/03/01 23:41:32;;;;;;;328.25;240.68;;;;;;;23.21;32.34;102023.59;5092114;28;20035;-43
2023/03/01 23:44:02;;;;;;;333.67;240.35;;;;;;;23.16;32.24;102020.78;5093646;28;20020;-45
2023/03/01 23:46:33;;;;;;;347.67;242.65;;;;;;;23.21;32.06;102028.81;5093386;28;20024;-46
2023/03/01 23:49:02;;;;;;;332.58;239.90;;;;;;;23.17;32.39;102016.44;5093563;28;20034;-44
2023/03/01 23:51:31;;;;;;;337.77;240.45;;;;;;;23.15;32.46;102021.63;5091475;28;20028;-50
2023/03/01 23:54:04;;;;;;;334.80;244.57;;;;;;;23.12;32.04;102018.91;5093201;28;20408;-42
2023/03/01 23:56:35;;;;;;;334.88;233.77;;;;;;;23.11;32.31;102027.59;5093617;28;20074;-41
2023/03/01 23:59:07;;;;;;;331.92;244.50;;;;;;;23.10;32.15;102022.28;5091917;28;20062;-41
